sensor_id;sensor_type;location;lat;lon;timestamp;noise_LAeq;noise_LA_min;noise_LA_max;noise_LA01;noise_LA95
66459;Laerm;70605;52.550;4.730;2023-07-29T00:00:03;44.20;43.36;45.15;;
66459;Laerm;70605;52.550;4.730;2023-07-29T00:00:13;44.38;43.24;46.47;;
66459;Laerm;70605;52.550;4.730;2023-07-29T00:00:23;44.81;43.42;47.21;;
66459;Laerm;70605;52.550;4.730;2023-07-29T00:00:34;44.64;43.49;46.83;;
66459;Laerm;70605;52.550;4.730;2023-07-29T00:00:44;44.55;43.19;47.75;;
66459;Laerm;70605;52.550;4.730;2023-07-29T00:00:55;44.29;43.06;48.14;;
66459;Laerm;70605;52.550;4.730;2023-07-29T00:01:06;44.54;43.08;51.83;;
66459;Laerm;70605;52.550;4.730;2023-07-29T00:01:16;44.10;43.00;47.61;;
66459;Laerm;70605;52.550;4.730;2023-07-29T00:01:26;44.09;43.09;48.32;;
66459;Laerm;70605;52.550;4.730;2023-07-29T00:01:36;44.17;43.23;45.43;;
66459;Laerm;70605;52.550;4.730;2023-07-29T00:01:47;44.30;42.97;46.31;;
66459;Laerm;70605;52.550;4.730;2023-07-29T00:01:59;44.16;43.20;45.63;;
66459;Laerm;70605;52.550;4.730;2023-07-29T00:02:09;44.08;43.09;44.99;;
66459;Laerm;70605;52.550;4.730;2023-07-29T00:02:20;43.88;42.65;45.28;;
66459;Laerm;70605;52.550;4.730;2023-07-29T00:02:30;43.87;43.11;45.29;;
66459;Laerm;70605;52.550;4.730;2023-07-29T00:02:42;43.92;42.96;45.62;;
66459;Laerm;70605;52.550;4.730;2023-07-29T00:02:52;44.13;43.23;48.43;;
66459;Laerm;70605;52.550;4.730;2023-07-29T00:03:02;44.49;43.09;51.16;;
66459;Laerm;70605;52.550;4.730;2023-07-29T00:03:13;44.06;43.01;47.59;;
66459;Laerm;70605;52.550;4.730;2023-07-29T00:03:23;43.84;42.89;44.70;;
66459;Laerm;70605;52.550;4.730;2023-07-29T00:03:33;43.80;42.90;45.63;;
66459;Laerm;70605;52.550;4.730;2023-07-29T00:03:44;43.81;42.81;44.91;;
66459;Laerm;70605;52.550;4.730;2023-07-29T00:03:54;43.79;42.98;44.89;;
66459;Laerm;70605;52.550;4.730;2023-07-29T00:04:04;44.01;43.03;45.91;;
66459;Laerm;70605;52.550;4.730;2023-07-29T00:04:15;44.11;42.98;47.56;;
66459;Laerm;70605;52.550;4.730;2023-07-29T00:04:25;43.87;42.61;45.03;;
66459;Laerm;70605;52.550;4.730;2023-07-29T00:04:35;43.85;42.74;44.75;;
66459;Laerm;70605;52.550;4.730;2023-07-29T00:04:45;43.94;43.01;45.39;;
66459;Laerm;70605;52.550;4.730;2023-07-29T00:04:56;44.00;43.02;45.88;;
66459;Laerm;70605;52.550;4.730;2023-07-29T00:05:06;43.96;43.06;44.88;;
66459;Laerm;70605;52.550;4.730;2023-07-29T00:05:16;44.08;43.00;48.23;;
66459;Laerm;70605;52.550;4.730;2023-07-29T00:05:26;43.89;42.86;44.76;;
66459;Laerm;70605;52.550;4.730;2023-07-29T00:05:37;44.10;43.15;46.09;;
66459;Laerm;70605;52.550;4.730;2023-07-29T00:05:47;44.38;43.03;51.13;;
66459;Laerm;70605;52.550;4.730;2023-07-29T00:05:58;44.43;43.17;51.45;;
66459;Laerm;70605;52.550;4.730;2023-07-29T00:06:09;44.01;43.13;45.23;;
66459;Laerm;70605;52.550;4.730;2023-07-29T00:06:20;44.07;43.06;45.83;;
66459;Laerm;70605;52.550;4.730;2023-07-29T00:06:30;44.03;42.91;46.93;;
66459;Laerm;70605;52.550;4.730;2023-07-29T00:06:40;44.17;43.23;45.18;;
66459;Laerm;70605;52.550;4.730;2023-07-29T00:06:50;44.38;43.11;46.37;;
66459;Laerm;70605;52.550;4.730;2023-07-29T00:07:01;44.28;43.35;46.25;;
66459;Laerm;70605;52.550;4.730;2023-07-29T00:07:11;44.44;43.40;45.68;;
66459;Laerm;70605;52.550;4.730;2023-07-29T00:07:21;46.76;43.74;51.56;;
66459;Laerm;70605;52.550;4.730;2023-07-29T00:07:31;49.96;44.87;59.87;;
66459;Laerm;70605;52.550;4.730;2023-07-29T00:07:42;47.68;44.04;56.87;;
66459;Laerm;70605;52.550;4.730;2023-07-29T00:07:52;48.47;44.22;56.46;;
66459;Laerm;70605;52.550;4.730;2023-07-29T00:08:02;53.47;45.29;67.39;;
66459;Laerm;70605;52.550;4.730;2023-07-29T00:08:12;55.30;47.88;62.01;;
66459;Laerm;70605;52.550;4.730;2023-07-29T00:08:23;58.22;51.90;64.35;;
66459;Laerm;70605;52.550;4.730;2023-07-29T00:08:33;54.06;47.54;59.83;;
66459;Laerm;70605;52.550;4.730;2023-07-29T00:08:43;48.72;44.75;53.65;;
66459;Laerm;70605;52.550;4.730;2023-07-29T00:08:54;46.37;44.33;49.79;;
66459;Laerm;70605;52.550;4.730;2023-07-29T00:09:04;45.31;43.69;47.30;;
66459;Laerm;70605;52.550;4.730;2023-07-29T00:09:14;45.88;43.32;55.58;;
66459;Laerm;70605;52.550;4.730;2023-07-29T00:09:24;45.56;43.49;54.03;;
66459;Laerm;70605;52.550;4.730;2023-07-29T00:09:35;44.36;43.23;48.69;;
66459;Laerm;70605;52.550;4.730;2023-07-29T00:09:45;44.95;43.26;51.40;;
66459;Laerm;70605;52.550;4.730;2023-07-29T00:09:55;44.80;43.27;50.13;;
66459;Laerm;70605;52.550;4.730;2023-07-29T00:10:06;44.83;43.04;55.30;;
66459;Laerm;70605;52.550;4.730;2023-07-29T00:10:16;47.85;43.43;59.40;;
66459;Laerm;70605;52.550;4.730;2023-07-29T00:10:26;49.93;44.83;58.03;;
66459;Laerm;70605;52.550;4.730;2023-07-29T00:10:37;55.10;48.76;64.89;;
66459;Laerm;70605;52.550;4.730;2023-07-29T00:10:47;55.93;48.69;67.99;;
66459;Laerm;70605;52.550;4.730;2023-07-29T00:10:58;49.80;45.06;56.53;;
66459;Laerm;70605;52.550;4.730;2023-07-29T00:11:08;46.13;43.64;50.58;;
66459;Laerm;70605;52.550;4.730;2023-07-29T00:11:18;44.65;43.57;45.70;;
66459;Laerm;70605;52.550;4.730;2023-07-29T00:11:28;45.88;43.58;57.34;;
66459;Laerm;70605;52.550;4.730;2023-07-29T00:11:39;44.96;43.46;50.10;;
66459;Laerm;70605;52.550;4.730;2023-07-29T00:11:49;44.34;42.97;50.87;;
66459;Laerm;70605;52.550;4.730;2023-07-29T00:11:59;44.10;43.21;45.31;;
66459;Laerm;70605;52.550;4.730;2023-07-29T00:12:09;44.27;43.18;47.35;;
66459;Laerm;70605;52.550;4.730;2023-07-29T00:12:20;44.29;43.18;46.69;;
66459;Laerm;70605;52.550;4.730;2023-07-29T00:12:30;44.00;43.18;48.18;;
66459;Laerm;70605;52.550;4.730;2023-07-29T00:12:40;45.24;43.18;52.11;;
66459;Laerm;70605;52.550;4.730;2023-07-29T00:12:51;44.04;42.92;47.52;;
66459;Laerm;70605;52.550;4.730;2023-07-29T00:13:01;45.04;43.00;54.41;;
66459;Laerm;70605;52.550;4.730;2023-07-29T00:13:11;47.20;42.73;62.41;;
66459;Laerm;70605;52.550;4.730;2023-07-29T00:13:22;44.64;42.73;53.66;;
66459;Laerm;70605;52.550;4.730;2023-07-29T00:13:32;43.91;42.72;46.01;;
66459;Laerm;70605;52.550;4.730;2023-07-29T00:13:42;44.11;42.93;51.04;;
66459;Laerm;70605;52.550;4.730;2023-07-29T00:13:52;44.31;43.11;48.21;;
66459;Laerm;70605;52.550;4.730;2023-07-29T00:14:03;43.96;42.71;46.10;;
66459;Laerm;70605;52.550;4.730;2023-07-29T00:14:13;43.97;42.61;47.49;;
66459;Laerm;70605;52.550;4.730;2023-07-29T00:14:23;44.78;43.24;51.64;;
66459;Laerm;70605;52.550;4.730;2023-07-29T00:14:34;43.84;42.99;44.76;;
66459;Laerm;70605;52.550;4.730;2023-07-29T00:14:44;43.74;42.40;44.50;;
66459;Laerm;70605;52.550;4.730;2023-07-29T00:14:54;43.73;42.85;44.39;;
66459;Laerm;70605;52.550;4.730;2023-07-29T00:15:05;43.77;42.93;44.66;;
66459;Laerm;70605;52.550;4.730;2023-07-29T00:15:15;43.88;42.76;47.79;;
66459;Laerm;70605;52.550;4.730;2023-07-29T00:15:25;43.98;42.93;50.11;;
66459;Laerm;70605;52.550;4.730;2023-07-29T00:15:36;44.06;42.93;46.83;;
66459;Laerm;70605;52.550;4.730;2023-07-29T00:15:46;44.29;43.20;47.25;;
66459;Laerm;70605;52.550;4.730;2023-07-29T00:15:56;44.07;43.01;48.17;;
66459;Laerm;70605;52.550;4.730;2023-07-29T00:16:06;43.85;42.94;48.41;;
66459;Laerm;70605;52.550;4.730;2023-07-29T00:16:17;43.94;42.55;49.11;;
66459;Laerm;70605;52.550;4.730;2023-07-29T00:16:27;46.41;43.36;58.05;;
66459;Laerm;70605;52.550;4.730;2023-07-29T00:16:37;48.56;42.16;61.32;;
66459;Laerm;70605;52.550;4.730;2023-07-29T00:16:48;48.81;42.81;59.83;;
66459;Laerm;70605;52.550;4.730;2023-07-29T00:16:58;47.27;42.70;63.82;;
66459;Laerm;70605;52.550;4.730;2023-07-29T00:17:08;44.04;42.75;52.22;;
66459;Laerm;70605;52.550;4.730;2023-07-29T00:17:18;45.56;42.86;55.48;;
66459;Laerm;70605;52.550;4.730;2023-07-29T00:17:30;45.74;43.14;58.40;;
66459;Laerm;70605;52.550;4.730;2023-07-29T00:17:40;44.22;43.24;46.76;;
66459;Laerm;70605;52.550;4.730;2023-07-29T00:17:50;44.50;43.19;47.90;;
66459;Laerm;70605;52.550;4.730;2023-07-29T00:18:00;51.48;43.43;64.63;;
66459;Laerm;70605;52.550;4.730;2023-07-29T00:18:11;49.17;43.19;58.71;;
66459;Laerm;70605;52.550;4.730;2023-07-29T00:18:22;50.99;43.26;64.51;;
66459;Laerm;70605;52.550;4.730;2023-07-29T00:18:32;50.04;43.23;65.04;;
66459;Laerm;70605;52.550;4.730;2023-07-29T00:18:43;48.01;42.96;61.80;;
66459;Laerm;70605;52.550;4.730;2023-07-29T00:18:53;47.64;43.02;56.56;;
66459;Laerm;70605;52.550;4.730;2023-07-29T00:19:04;47.34;43.17;56.55;;
66459;Laerm;70605;52.550;4.730;2023-07-29T00:19:14;45.95;43.42;54.02;;
66459;Laerm;70605;52.550;4.730;2023-07-29T00:19:25;55.57;44.14;68.10;;
66459;Laerm;70605;52.550;4.730;2023-07-29T00:19:35;53.40;43.72;64.99;;
66459;Laerm;70605;52.550;4.730;2023-07-29T00:19:45;51.66;43.34;68.96;;
66459;Laerm;70605;52.550;4.730;2023-07-29T00:19:55;56.57;42.91;68.49;;
66459;Laerm;70605;52.550;4.730;2023-07-29T00:20:06;53.76;43.49;65.28;;
66459;Laerm;70605;52.550;4.730;2023-07-29T00:20:17;52.93;43.81;65.20;;
66459;Laerm;70605;52.550;4.730;2023-07-29T00:20:27;45.73;43.22;53.68;;
66459;Laerm;70605;52.550;4.730;2023-07-29T00:20:37;46.46;43.07;59.98;;
66459;Laerm;70605;52.550;4.730;2023-07-29T00:20:47;44.44;43.18;48.95;;
66459;Laerm;70605;52.550;4.730;2023-07-29T00:20:58;44.94;43.13;54.04;;
66459;Laerm;70605;52.550;4.730;2023-07-29T00:21:08;45.23;43.18;54.15;;
66459;Laerm;70605;52.550;4.730;2023-07-29T00:21:18;46.88;43.40;60.12;;
66459;Laerm;70605;52.550;4.730;2023-07-29T00:21:28;44.44;42.98;49.46;;
66459;Laerm;70605;52.550;4.730;2023-07-29T00:21:39;46.28;43.29;56.56;;
66459;Laerm;70605;52.550;4.730;2023-07-29T00:21:50;44.75;43.17;50.10;;
66459;Laerm;70605;52.550;4.730;2023-07-29T00:22:00;44.67;43.20;48.81;;
66459;Laerm;70605;52.550;4.730;2023-07-29T00:22:10;47.89;43.73;57.26;;
66459;Laerm;70605;52.550;4.730;2023-07-29T00:22:20;49.14;43.23;63.68;;
66459;Laerm;70605;52.550;4.730;2023-07-29T00:22:31;45.06;43.15;53.96;;
66459;Laerm;70605;52.550;4.730;2023-07-29T00:22:41;44.26;43.06;48.39;;
66459;Laerm;70605;52.550;4.730;2023-07-29T00:22:51;44.53;42.95;53.90;;
66459;Laerm;70605;52.550;4.730;2023-07-29T00:23:05;50.05;42.94;65.35;;
66459;Laerm;70605;52.550;4.730;2023-07-29T00:23:16;52.87;43.15;67.07;;
66459;Laerm;70605;52.550;4.730;2023-07-29T00:23:27;52.99;43.23;66.62;;
66459;Laerm;70605;52.550;4.730;2023-07-29T00:23:37;43.98;43.06;46.35;;
66459;Laerm;70605;52.550;4.730;2023-07-29T00:23:47;51.53;43.13;67.77;;
66459;Laerm;70605;52.550;4.730;2023-07-29T00:23:58;50.63;43.28;63.16;;
66459;Laerm;70605;52.550;4.730;2023-07-29T00:24:08;44.46;42.68;48.85;;
66459;Laerm;70605;52.550;4.730;2023-07-29T00:24:18;49.88;42.86;60.65;;
66459;Laerm;70605;52.550;4.730;2023-07-29T00:24:29;44.98;43.11;54.28;;
66459;Laerm;70605;52.550;4.730;2023-07-29T00:24:39;44.66;43.04;52.60;;
66459;Laerm;70605;52.550;4.730;2023-07-29T00:24:53;45.42;43.07;56.76;;
66459;Laerm;70605;52.550;4.730;2023-07-29T00:25:05;44.99;43.22;52.32;;
66459;Laerm;70605;52.550;4.730;2023-07-29T00:25:15;44.76;42.98;54.19;;
66459;Laerm;70605;52.550;4.730;2023-07-29T00:25:26;44.43;42.81;53.56;;
66459;Laerm;70605;52.550;4.730;2023-07-29T00:25:36;44.91;42.83;50.63;;
66459;Laerm;70605;52.550;4.730;2023-07-29T00:25:46;48.29;43.08;61.67;;
66459;Laerm;70605;52.550;4.730;2023-07-29T00:25:57;49.89;42.96;62.35;;
66459;Laerm;70605;52.550;4.730;2023-07-29T00:26:07;49.92;43.08;62.40;;
66459;Laerm;70605;52.550;4.730;2023-07-29T00:26:17;45.59;43.16;56.28;;
66459;Laerm;70605;52.550;4.730;2023-07-29T00:26:27;48.55;43.20;60.25;;
66459;Laerm;70605;52.550;4.730;2023-07-29T00:26:39;44.17;42.82;49.80;;
66459;Laerm;70605;52.550;4.730;2023-07-29T00:26:49;43.96;42.98;45.09;;
66459;Laerm;70605;52.550;4.730;2023-07-29T00:26:59;44.96;43.34;51.36;;
66459;Laerm;70605;52.550;4.730;2023-07-29T00:27:10;45.95;43.81;53.42;;
66459;Laerm;70605;52.550;4.730;2023-07-29T00:27:20;50.45;45.20;56.40;;
66459;Laerm;70605;52.550;4.730;2023-07-29T00:27:31;55.23;47.36;60.75;;
66459;Laerm;70605;52.550;4.730;2023-07-29T00:27:41;52.89;47.62;57.51;;
66459;Laerm;70605;52.550;4.730;2023-07-29T00:27:52;49.47;44.17;55.23;;
66459;Laerm;70605;52.550;4.730;2023-07-29T00:28:02;46.82;43.89;53.40;;
66459;Laerm;70605;52.550;4.730;2023-07-29T00:28:12;44.20;43.11;47.19;;
66459;Laerm;70605;52.550;4.730;2023-07-29T00:28:23;44.16;42.94;48.07;;
66459;Laerm;70605;52.550;4.730;2023-07-29T00:28:33;44.20;43.03;48.65;;
66459;Laerm;70605;52.550;4.730;2023-07-29T00:28:43;44.07;42.98;45.44;;
66459;Laerm;70605;52.550;4.730;2023-07-29T00:28:53;43.99;42.95;48.13;;
66459;Laerm;70605;52.550;4.730;2023-07-29T00:29:04;44.05;42.98;48.83;;
66459;Laerm;70605;52.550;4.730;2023-07-29T00:29:14;44.08;42.85;47.14;;
66459;Laerm;70605;52.550;4.730;2023-07-29T00:29:24;44.02;43.12;46.14;;
66459;Laerm;70605;52.550;4.730;2023-07-29T00:29:34;43.84;42.90;45.22;;
66459;Laerm;70605;52.550;4.730;2023-07-29T00:29:45;44.01;42.92;45.95;;
66459;Laerm;70605;52.550;4.730;2023-07-29T00:29:55;43.95;42.80;45.38;;
66459;Laerm;70605;52.550;4.730;2023-07-29T00:30:05;43.96;42.80;46.27;;
66459;Laerm;70605;52.550;4.730;2023-07-29T00:30:16;43.85;42.87;46.32;;
66459;Laerm;70605;52.550;4.730;2023-07-29T00:30:26;43.99;43.07;45.48;;
66459;Laerm;70605;52.550;4.730;2023-07-29T00:30:36;44.13;42.95;48.22;;
66459;Laerm;70605;52.550;4.730;2023-07-29T00:30:47;43.82;42.77;45.15;;
66459;Laerm;70605;52.550;4.730;2023-07-29T00:30:57;44.05;43.03;46.04;;
66459;Laerm;70605;52.550;4.730;2023-07-29T00:31:07;44.15;42.98;46.16;;
66459;Laerm;70605;52.550;4.730;2023-07-29T00:31:18;45.39;43.42;50.26;;
66459;Laerm;70605;52.550;4.730;2023-07-29T00:31:28;47.90;44.44;53.80;;
66459;Laerm;70605;52.550;4.730;2023-07-29T00:31:38;56.37;47.87;65.43;;
66459;Laerm;70605;52.550;4.730;2023-07-29T00:31:48;55.45;47.69;61.28;;
66459;Laerm;70605;52.550;4.730;2023-07-29T00:31:59;48.92;44.43;54.36;;
66459;Laerm;70605;52.550;4.730;2023-07-29T00:32:09;45.92;43.88;50.69;;
66459;Laerm;70605;52.550;4.730;2023-07-29T00:32:19;44.66;43.35;49.14;;
66459;Laerm;70605;52.550;4.730;2023-07-29T00:32:29;43.99;43.13;46.66;;
66459;Laerm;70605;52.550;4.730;2023-07-29T00:32:40;43.78;42.92;45.06;;
66459;Laerm;70605;52.550;4.730;2023-07-29T00:32:51;43.82;42.77;45.35;;
66459;Laerm;70605;52.550;4.730;2023-07-29T00:33:01;43.96;43.04;47.09;;
66459;Laerm;70605;52.550;4.730;2023-07-29T00:33:11;43.82;42.71;45.32;;
66459;Laerm;70605;52.550;4.730;2023-07-29T00:33:22;44.09;43.11;45.89;;
66459;Laerm;70605;52.550;4.730;2023-07-29T00:33:32;43.91;42.98;45.33;;
66459;Laerm;70605;52.550;4.730;2023-07-29T00:33:42;44.64;42.65;54.01;;
66459;Laerm;70605;52.550;4.730;2023-07-29T00:33:52;44.00;43.07;46.28;;
66459;Laerm;70605;52.550;4.730;2023-07-29T00:34:03;44.89;43.38;49.08;;
66459;Laerm;70605;52.550;4.730;2023-07-29T00:34:13;48.22;44.56;52.91;;
66459;Laerm;70605;52.550;4.730;2023-07-29T00:34:27;56.42;46.63;64.01;;
66459;Laerm;70605;52.550;4.730;2023-07-29T00:34:37;53.13;47.49;60.53;;
66459;Laerm;70605;52.550;4.730;2023-07-29T00:34:47;47.92;44.74;52.47;;
66459;Laerm;70605;52.550;4.730;2023-07-29T00:34:58;47.06;44.10;53.28;;
66459;Laerm;70605;52.550;4.730;2023-07-29T00:35:10;45.48;43.46;51.00;;
66459;Laerm;70605;52.550;4.730;2023-07-29T00:35:21;44.58;42.75;50.94;;
66459;Laerm;70605;52.550;4.730;2023-07-29T00:35:31;44.07;43.21;47.78;;
66459;Laerm;70605;52.550;4.730;2023-07-29T00:35:41;43.96;43.05;45.72;;
66459;Laerm;70605;52.550;4.730;2023-07-29T00:35:52;44.51;43.08;50.18;;
66459;Laerm;70605;52.550;4.730;2023-07-29T00:36:02;44.51;43.06;48.47;;
66459;Laerm;70605;52.550;4.730;2023-07-29T00:36:12;43.78;42.93;44.71;;
66459;Laerm;70605;52.550;4.730;2023-07-29T00:36:23;43.93;42.87;45.48;;
66459;Laerm;70605;52.550;4.730;2023-07-29T00:36:33;44.83;43.09;52.94;;
66459;Laerm;70605;52.550;4.730;2023-07-29T00:36:43;44.02;43.02;46.36;;
66459;Laerm;70605;52.550;4.730;2023-07-29T00:36:54;43.95;43.09;46.03;;
66459;Laerm;70605;52.550;4.730;2023-07-29T00:37:04;44.72;43.00;54.37;;
66459;Laerm;70605;52.550;4.730;2023-07-29T00:37:15;44.70;43.28;49.77;;
66459;Laerm;70605;52.550;4.730;2023-07-29T00:37:27;44.26;43.12;46.40;;
66459;Laerm;70605;52.550;4.730;2023-07-29T00:37:37;44.23;43.03;45.57;;
66459;Laerm;70605;52.550;4.730;2023-07-29T00:37:47;44.08;43.07;46.09;;
66459;Laerm;70605;52.550;4.730;2023-07-29T00:37:58;44.89;43.22;54.24;;
66459;Laerm;70605;52.550;4.730;2023-07-29T00:38:08;44.00;43.12;45.72;;
66459;Laerm;70605;52.550;4.730;2023-07-29T00:38:18;44.04;42.88;46.36;;
66459;Laerm;70605;52.550;4.730;2023-07-29T00:38:29;44.26;43.06;47.35;;
66459;Laerm;70605;52.550;4.730;2023-07-29T00:38:39;44.42;43.13;46.09;;
66459;Laerm;70605;52.550;4.730;2023-07-29T00:38:49;44.60;43.03;48.30;;
66459;Laerm;70605;52.550;4.730;2023-07-29T00:38:59;49.14;44.66;54.80;;
66459;Laerm;70605;52.550;4.730;2023-07-29T00:39:09;56.59;45.39;64.76;;
66459;Laerm;70605;52.550;4.730;2023-07-29T00:39:20;61.40;55.97;67.12;;
66459;Laerm;70605;52.550;4.730;2023-07-29T00:39:30;60.02;53.33;67.60;;
66459;Laerm;70605;52.550;4.730;2023-07-29T00:39:40;53.01;46.08;60.91;;
66459;Laerm;70605;52.550;4.730;2023-07-29T00:39:51;46.88;44.47;52.11;;
66459;Laerm;70605;52.550;4.730;2023-07-29T00:40:01;46.02;43.67;49.06;;
66459;Laerm;70605;52.550;4.730;2023-07-29T00:40:15;44.81;43.77;46.87;;
66459;Laerm;70605;52.550;4.730;2023-07-29T00:40:28;44.48;43.39;48.90;;
66459;Laerm;70605;52.550;4.730;2023-07-29T00:40:38;44.29;43.25;48.43;;
66459;Laerm;70605;52.550;4.730;2023-07-29T00:40:49;43.99;43.10;44.87;;
66459;Laerm;70605;52.550;4.730;2023-07-29T00:41:00;44.24;42.76;46.25;;
66459;Laerm;70605;52.550;4.730;2023-07-29T00:41:12;44.06;43.03;47.19;;
66459;Laerm;70605;52.550;4.730;2023-07-29T00:41:23;44.89;43.04;51.98;;
66459;Laerm;70605;52.550;4.730;2023-07-29T00:41:34;44.25;43.00;46.75;;
66459;Laerm;70605;52.550;4.730;2023-07-29T00:41:45;44.69;43.39;48.92;;
66459;Laerm;70605;52.550;4.730;2023-07-29T00:41:55;44.87;43.41;50.32;;
66459;Laerm;70605;52.550;4.730;2023-07-29T00:42:05;44.52;43.28;46.21;;
66459;Laerm;70605;52.550;4.730;2023-07-29T00:42:16;45.32;43.19;53.63;;
66459;Laerm;70605;52.550;4.730;2023-07-29T00:42:26;44.09;43.04;45.82;;
66459;Laerm;70605;52.550;4.730;2023-07-29T00:42:36;44.56;43.28;49.87;;
66459;Laerm;70605;52.550;4.730;2023-07-29T00:42:47;48.02;43.31;60.72;;
66459;Laerm;70605;52.550;4.730;2023-07-29T00:42:57;45.89;43.46;59.16;;
66459;Laerm;70605;52.550;4.730;2023-07-29T00:43:08;47.23;43.10;56.98;;
66459;Laerm;70605;52.550;4.730;2023-07-29T00:43:18;49.54;43.28;60.00;;
66459;Laerm;70605;52.550;4.730;2023-07-29T00:43:28;45.88;43.06;56.93;;
66459;Laerm;70605;52.550;4.730;2023-07-29T00:43:39;46.62;43.15;58.07;;
66459;Laerm;70605;52.550;4.730;2023-07-29T00:43:49;47.67;42.96;60.99;;
66459;Laerm;70605;52.550;4.730;2023-07-29T00:43:59;47.01;42.94;58.33;;
66459;Laerm;70605;52.550;4.730;2023-07-29T00:44:09;48.22;43.48;57.37;;
66459;Laerm;70605;52.550;4.730;2023-07-29T00:44:20;46.14;43.73;54.49;;
66459;Laerm;70605;52.550;4.730;2023-07-29T00:44:30;45.88;43.04;54.92;;
66459;Laerm;70605;52.550;4.730;2023-07-29T00:44:41;44.70;43.40;48.76;;
66459;Laerm;70605;52.550;4.730;2023-07-29T00:44:52;46.23;43.48;58.32;;
66459;Laerm;70605;52.550;4.730;2023-07-29T00:45:02;55.41;43.41;70.29;;
66459;Laerm;70605;52.550;4.730;2023-07-29T00:45:12;51.77;43.50;62.38;;
66459;Laerm;70605;52.550;4.730;2023-07-29T00:45:23;53.83;43.11;66.45;;
66459;Laerm;70605;52.550;4.730;2023-07-29T00:45:35;50.20;43.47;60.32;;
66459;Laerm;70605;52.550;4.730;2023-07-29T00:45:45;49.26;43.40;64.32;;
66459;Laerm;70605;52.550;4.730;2023-07-29T00:45:56;45.20;43.01;55.03;;
66459;Laerm;70605;52.550;4.730;2023-07-29T00:46:08;47.54;43.21;56.95;;
66459;Laerm;70605;52.550;4.730;2023-07-29T00:46:18;45.48;43.23;55.59;;
66459;Laerm;70605;52.550;4.730;2023-07-29T00:46:30;46.36;42.91;54.57;;
66459;Laerm;70605;52.550;4.730;2023-07-29T00:46:41;44.34;42.99;52.07;;
66459;Laerm;70605;52.550;4.730;2023-07-29T00:46:52;44.16;42.77;48.15;;
66459;Laerm;70605;52.550;4.730;2023-07-29T00:47:03;43.81;42.71;44.90;;
66459;Laerm;70605;52.550;4.730;2023-07-29T00:47:15;43.90;42.98;46.55;;
66459;Laerm;70605;52.550;4.730;2023-07-29T00:47:25;44.85;43.15;53.43;;
66459;Laerm;70605;52.550;4.730;2023-07-29T00:47:35;45.04;43.07;53.67;;
66459;Laerm;70605;52.550;4.730;2023-07-29T00:47:46;44.08;42.88;47.51;;
66459;Laerm;70605;52.550;4.730;2023-07-29T00:47:57;44.20;43.04;46.71;;
66459;Laerm;70605;52.550;4.730;2023-07-29T00:48:07;47.68;42.99;59.13;;
66459;Laerm;70605;52.550;4.730;2023-07-29T00:48:17;44.44;42.89;53.61;;
66459;Laerm;70605;52.550;4.730;2023-07-29T00:48:28;44.46;42.72;51.52;;
66459;Laerm;70605;52.550;4.730;2023-07-29T00:48:39;43.67;42.74;44.71;;
66459;Laerm;70605;52.550;4.730;2023-07-29T00:48:49;44.33;42.79;54.08;;
66459;Laerm;70605;52.550;4.730;2023-07-29T00:48:59;44.29;42.67;52.61;;
66459;Laerm;70605;52.550;4.730;2023-07-29T00:49:10;45.53;42.73;55.20;;
66459;Laerm;70605;52.550;4.730;2023-07-29T00:49:20;43.90;42.75;49.67;;
66459;Laerm;70605;52.550;4.730;2023-07-29T00:49:31;44.15;42.57;49.78;;
66459;Laerm;70605;52.550;4.730;2023-07-29T00:49:42;43.83;42.76;48.09;;
66459;Laerm;70605;52.550;4.730;2023-07-29T00:49:53;44.72;42.93;53.37;;
66459;Laerm;70605;52.550;4.730;2023-07-29T00:50:03;44.89;42.88;51.16;;
66459;Laerm;70605;52.550;4.730;2023-07-29T00:50:14;45.89;43.03;55.30;;
66459;Laerm;70605;52.550;4.730;2023-07-29T00:50:25;44.15;42.89;54.08;;
66459;Laerm;70605;52.550;4.730;2023-07-29T00:50:37;44.17;42.95;46.58;;
66459;Laerm;70605;52.550;4.730;2023-07-29T00:50:48;44.62;43.06;51.40;;
66459;Laerm;70605;52.550;4.730;2023-07-29T00:50:58;44.02;42.99;48.84;;
66459;Laerm;70605;52.550;4.730;2023-07-29T00:51:09;44.08;43.05;46.88;;
66459;Laerm;70605;52.550;4.730;2023-07-29T00:51:19;43.83;42.79;47.74;;
66459;Laerm;70605;52.550;4.730;2023-07-29T00:51:29;43.93;42.98;45.99;;
66459;Laerm;70605;52.550;4.730;2023-07-29T00:51:39;44.47;43.08;49.62;;
66459;Laerm;70605;52.550;4.730;2023-07-29T00:51:50;44.11;43.22;46.45;;
66459;Laerm;70605;52.550;4.730;2023-07-29T00:52:00;43.88;42.79;44.66;;
66459;Laerm;70605;52.550;4.730;2023-07-29T00:52:11;43.89;43.10;44.95;;
66459;Laerm;70605;52.550;4.730;2023-07-29T00:52:22;43.94;43.02;46.29;;
66459;Laerm;70605;52.550;4.730;2023-07-29T00:52:32;44.67;42.86;52.67;;
66459;Laerm;70605;52.550;4.730;2023-07-29T00:52:43;44.72;43.06;53.72;;
66459;Laerm;70605;52.550;4.730;2023-07-29T00:52:54;43.94;42.73;47.93;;
66459;Laerm;70605;52.550;4.730;2023-07-29T00:53:04;44.82;42.77;49.65;;
66459;Laerm;70605;52.550;4.730;2023-07-29T00:53:14;46.45;43.44;58.64;;
66459;Laerm;70605;52.550;4.730;2023-07-29T00:53:25;49.30;43.38;62.26;;
66459;Laerm;70605;52.550;4.730;2023-07-29T00:53:35;51.18;43.84;62.66;;
66459;Laerm;70605;52.550;4.730;2023-07-29T00:53:45;53.68;43.57;67.49;;
66459;Laerm;70605;52.550;4.730;2023-07-29T00:53:55;58.18;43.99;69.77;;
66459;Laerm;70605;52.550;4.730;2023-07-29T00:54:06;49.39;43.52;66.28;;
66459;Laerm;70605;52.550;4.730;2023-07-29T00:54:16;44.76;43.51;51.56;;
66459;Laerm;70605;52.550;4.730;2023-07-29T00:54:26;44.90;43.30;55.22;;
66459;Laerm;70605;52.550;4.730;2023-07-29T00:54:37;45.14;43.08;54.45;;
66459;Laerm;70605;52.550;4.730;2023-07-29T00:54:47;47.87;43.05;57.82;;
66459;Laerm;70605;52.550;4.730;2023-07-29T00:54:57;47.85;43.15;58.96;;
66459;Laerm;70605;52.550;4.730;2023-07-29T00:55:08;45.23;43.29;51.73;;
66459;Laerm;70605;52.550;4.730;2023-07-29T00:55:18;44.49;43.26;51.74;;
66459;Laerm;70605;52.550;4.730;2023-07-29T00:55:29;44.30;42.92;50.10;;
66459;Laerm;70605;52.550;4.730;2023-07-29T00:55:39;45.83;43.26;57.48;;
66459;Laerm;70605;52.550;4.730;2023-07-29T00:55:49;43.98;42.87;52.33;;
66459;Laerm;70605;52.550;4.730;2023-07-29T00:55:59;43.99;42.86;48.97;;
66459;Laerm;70605;52.550;4.730;2023-07-29T00:56:10;45.03;42.78;55.97;;
66459;Laerm;70605;52.550;4.730;2023-07-29T00:56:20;43.89;42.89;47.17;;
66459;Laerm;70605;52.550;4.730;2023-07-29T00:56:31;43.71;42.61;44.78;;
66459;Laerm;70605;52.550;4.730;2023-07-29T00:56:41;44.16;42.93;50.31;;
66459;Laerm;70605;52.550;4.730;2023-07-29T00:56:52;44.73;43.26;52.71;;
66459;Laerm;70605;52.550;4.730;2023-07-29T00:57:02;44.11;43.13;47.47;;
66459;Laerm;70605;52.550;4.730;2023-07-29T00:57:13;43.81;42.88;45.49;;
66459;Laerm;70605;52.550;4.730;2023-07-29T00:57:24;43.82;42.97;45.95;;
66459;Laerm;70605;52.550;4.730;2023-07-29T00:57:35;44.61;42.70;56.89;;
66459;Laerm;70605;52.550;4.730;2023-07-29T00:57:45;46.50;43.34;56.73;;
66459;Laerm;70605;52.550;4.730;2023-07-29T00:57:58;46.52;43.77;51.76;;
66459;Laerm;70605;52.550;4.730;2023-07-29T00:58:09;53.98;44.33;61.69;;
66459;Laerm;70605;52.550;4.730;2023-07-29T00:58:19;58.16;49.55;64.58;;
66459;Laerm;70605;52.550;4.730;2023-07-29T00:58:29;52.62;45.95;58.84;;
66459;Laerm;70605;52.550;4.730;2023-07-29T00:58:40;47.72;44.87;52.71;;